createdAt,value
2022-08-09T00:00:00.466Z,12.20
2022-08-09T00:02:37.257Z,12.93
2022-08-09T00:06:17.348Z,21.23
2022-08-09T00:08:04.139Z,19.20
2022-08-09T00:10:40.723Z,12.30
2022-08-09T00:13:17.019Z,15.10
2022-08-09T00:15:58.814Z,17.93
2022-08-09T00:18:35.629Z,10.83
2022-08-09T00:21:07.855Z,10.17
2022-08-09T00:23:58.162Z,13.17
2022-08-09T00:26:32.145Z,15.80
2022-08-09T00:29:02.135Z,16.13
2022-08-09T00:31:58.578Z,13.40
2022-08-09T00:34:19.360Z,12.40
2022-08-09T00:36:49.946Z,11.23
2022-08-09T00:40:13.967Z,11.77
2022-08-09T00:44:10.259Z,10.97
2022-08-09T00:44:53.750Z,12.07
2022-08-09T00:47:25.003Z,10.77
2022-08-09T00:49:54.875Z,11.67
2022-08-09T00:52:28.163Z,15.03
2022-08-09T00:55:02.269Z,14.10
2022-08-09T00:57:34.511Z,13.70
2022-08-09T01:00:21.825Z,12.43
2022-08-09T01:02:58.248Z,11.63
2022-08-09T01:05:50.951Z,13.87
2022-08-09T01:09:17.627Z,12.03
2022-08-09T01:12:09.120Z,12.43
2022-08-09T01:15:10.083Z,17.50
2022-08-09T01:17:59.545Z,11.37
2022-08-09T01:21:05.631Z,13.20
2022-08-09T01:24:05.030Z,12.90
2022-08-09T01:27:07.872Z,11.40
2022-08-09T01:29:58.020Z,11.40
2022-08-09T01:32:45.286Z,14.07
2022-08-09T01:35:37.792Z,13.17
2022-08-09T01:38:14.936Z,12.10
2022-08-09T01:40:52.456Z,17.57
2022-08-09T01:43:50.233Z,15.37
2022-08-09T01:46:27.495Z,13.67
2022-08-09T01:48:59.625Z,14.20
2022-08-09T01:51:33.075Z,16.00
2022-08-09T01:54:04.049Z,12.87
2022-08-09T01:56:33.920Z,12.17
2022-08-09T01:59:08.296Z,15.00
2022-08-09T02:01:58.070Z,12.00
2022-08-09T02:04:26.392Z,9.73
2022-08-09T02:07:15.524Z,15.97
2022-08-09T02:10:15.358Z,10.63
2022-08-09T02:12:46.028Z,15.20
2022-08-09T02:15:18.226Z,15.63
2022-08-09T02:18:01.601Z,13.17
2022-08-09T02:20:44.248Z,13.40
2022-08-09T02:23:31.999Z,14.80
2022-08-09T02:26:08.187Z,11.80
2022-08-09T02:28:56.350Z,13.40
2022-08-09T02:31:35.544Z,16.70
2022-08-09T02:34:25.827Z,11.23
2022-08-09T02:37:05.725Z,17.73
2022-08-09T02:39:54.918Z,16.50
2022-08-09T02:42:35.043Z,20.50
2022-08-09T02:45:11.744Z,15.27
2022-08-09T02:47:57.559Z,15.70
2022-08-09T02:50:56.155Z,25.50
2022-08-09T02:53:34.921Z,14.50
2022-08-09T02:56:04.543Z,13.83
2022-08-09T02:58:36.639Z,19.20
2022-08-09T03:01:07.733Z,17.30
2022-08-09T03:04:16.727Z,16.73
2022-08-09T03:06:27.639Z,17.50
2022-08-09T03:08:55.596Z,15.47
2022-08-09T03:11:29.917Z,16.47
2022-08-09T03:14:12.938Z,15.70
2022-08-09T03:16:45.273Z,13.93
2022-08-09T03:19:59.683Z,23.33
2022-08-09T03:22:12.473Z,14.40
2022-08-09T03:25:06.371Z,18.80
2022-08-09T03:27:47.566Z,23.80
2022-08-09T03:30:23.635Z,19.20
2022-08-09T03:33:13.036Z,18.00
2022-08-09T03:36:15.933Z,19.50
2022-08-09T03:38:41.982Z,22.03
2022-08-09T03:41:15.530Z,14.53
2022-08-09T03:44:03.341Z,17.30
2022-08-09T03:46:31.348Z,29.33
2022-08-09T03:49:04.015Z,22.87
2022-08-09T03:51:57.222Z,18.13
2022-08-09T03:54:29.560Z,21.47
2022-08-09T03:57:04.397Z,18.87
2022-08-09T03:59:53.230Z,21.13
2022-08-09T04:02:28.733Z,15.60
2022-08-09T04:04:59.199Z,18.50
2022-08-09T04:07:46.974Z,19.57
2022-08-09T04:10:20.307Z,14.50
2022-08-09T04:12:51.491Z,16.47
2022-08-09T04:15:52.043Z,15.60
2022-08-09T04:18:16.513Z,14.87
2022-08-09T04:20:46.979Z,15.37
2022-08-09T04:23:16.831Z,18.57
2022-08-09T04:25:51.777Z,15.20
2022-08-09T04:28:34.027Z,16.77
2022-08-09T04:31:08.406Z,17.27
2022-08-09T04:33:51.930Z,18.47
2022-08-09T04:36:28.332Z,16.77
2022-08-09T04:39:03.102Z,18.13
2022-08-09T04:41:32.153Z,18.17
2022-08-09T04:44:06.995Z,28.13
2022-08-09T04:46:59.647Z,16.23
2022-08-09T04:49:40.363Z,16.47
2022-08-09T04:52:18.557Z,14.80
2022-08-09T04:54:55.864Z,36.33
2022-08-09T04:57:24.195Z,17.50
2022-08-09T04:59:54.601Z,18.07
2022-08-09T05:02:27.097Z,16.10
2022-08-09T05:04:55.313Z,20.20
2022-08-09T05:07:22.815Z,15.47
2022-08-09T05:09:50.317Z,19.20
2022-08-09T05:12:17.472Z,14.73
2022-08-09T05:14:45.418Z,15.83
2022-08-09T05:18:36.680Z,21.07
2022-08-09T05:19:59.436Z,18.80
2022-08-09T05:22:33.198Z,14.60
2022-08-09T05:25:05.333Z,19.50
2022-08-09T05:27:32.267Z,14.67
2022-08-09T05:29:59.176Z,17.60
2022-08-09T05:32:30.032Z,15.20
2022-08-09T05:34:57.204Z,12.83
2022-08-09T05:37:25.229Z,14.93
2022-08-09T05:39:52.497Z,14.80
2022-08-09T05:42:21.225Z,13.33
2022-08-09T05:44:54.108Z,17.63
2022-08-09T05:47:23.182Z,15.67
2022-08-09T05:50:25.629Z,17.80
2022-08-09T05:52:42.014Z,14.07
2022-08-09T05:55:18.108Z,15.23
2022-08-09T05:57:50.927Z,18.77
2022-08-09T06:00:26.972Z,13.30
2022-08-09T06:03:01.748Z,15.00
2022-08-09T06:05:57.591Z,14.77
2022-08-09T06:08:19.362Z,13.93
2022-08-09T06:10:53.390Z,15.87
2022-08-09T06:13:20.981Z,17.50
2022-08-09T06:15:52.867Z,21.00
2022-08-09T06:18:24.841Z,12.00
2022-08-09T06:20:57.759Z,14.90
2022-08-09T06:23:57.519Z,14.70
2022-08-09T06:26:22.102Z,15.33
2022-08-09T06:29:00.004Z,16.27
2022-08-09T06:31:31.207Z,11.97
2022-08-09T06:34:07.332Z,13.17
2022-08-09T06:36:34.483Z,13.27
2022-08-09T06:39:02.674Z,21.07
2022-08-09T06:42:06.375Z,16.63
2022-08-09T06:44:25.408Z,13.03
2022-08-09T06:46:55.410Z,16.70
2022-08-09T06:49:44.875Z,14.03
2022-08-09T06:52:11.946Z,17.63
2022-08-09T06:54:39.214Z,12.57
2022-08-09T06:57:08.602Z,15.63
2022-08-09T07:00:49.453Z,9.93
2022-08-09T07:02:30.880Z,13.23
2022-08-09T07:04:59.822Z,12.30
2022-08-09T07:08:00.767Z,11.40
2022-08-09T07:10:29.385Z,12.20
2022-08-09T07:12:57.655Z,18.07
2022-08-09T07:16:36.393Z,14.17
2022-08-09T07:18:14.285Z,16.67
2022-08-09T07:20:43.808Z,10.30
2022-08-09T07:23:18.719Z,10.90
2022-08-09T07:25:47.139Z,18.70
2022-08-09T07:28:19.005Z,10.70
2022-08-09T07:30:45.985Z,10.40
2022-08-09T07:33:16.659Z,13.23
2022-08-09T07:35:53.907Z,11.40
2022-08-09T07:38:23.289Z,8.60
2022-08-09T07:41:08.150Z,10.73
2022-08-09T07:43:40.970Z,8.10
2022-08-09T07:46:19.330Z,9.33
2022-08-09T07:48:52.745Z,11.83
2022-08-09T07:52:05.844Z,10.13
2022-08-09T07:54:14.109Z,8.40
2022-08-09T07:56:48.756Z,7.80
2022-08-09T07:59:25.723Z,10.20
2022-08-09T08:02:04.976Z,8.80
2022-08-09T08:04:33.206Z,18.93
2022-08-09T08:07:15.319Z,11.23
2022-08-09T08:10:04.784Z,8.47
2022-08-09T08:12:39.976Z,8.73
2022-08-09T08:15:17.846Z,9.53
2022-08-09T08:17:54.663Z,8.60
2022-08-09T08:20:29.574Z,10.77
2022-08-09T08:23:03.719Z,11.43
2022-08-09T08:25:44.406Z,9.87
2022-08-09T08:28:15.194Z,10.90
2022-08-09T08:30:43.910Z,11.40
2022-08-09T08:33:11.912Z,10.53
2022-08-09T08:35:58.500Z,6.57
2022-08-09T08:38:27.910Z,7.00
2022-08-09T08:40:56.637Z,7.67
2022-08-09T08:43:26.456Z,12.10
2022-08-09T08:46:32.711Z,7.07
2022-08-09T08:48:53.680Z,5.87
2022-08-09T08:51:23.054Z,7.63
2022-08-09T08:54:04.062Z,6.17
2022-08-09T08:56:38.183Z,6.80
2022-08-09T08:59:20.192Z,5.53
2022-08-09T09:01:53.077Z,9.53
2022-08-09T09:04:37.815Z,13.20
2022-08-09T09:07:15.799Z,13.13
2022-08-09T09:10:01.897Z,6.73
2022-08-09T09:12:33.973Z,6.83
2022-08-09T09:15:05.728Z,9.80
2022-08-09T09:17:49.293Z,8.40
2022-08-09T09:20:20.634Z,7.50
2022-08-09T09:23:01.895Z,10.20
2022-08-09T09:26:02.034Z,8.17
2022-08-09T09:29:03.030Z,6.80
2022-08-09T09:32:04.048Z,7.67
2022-08-09T09:34:18.195Z,6.70
2022-08-09T09:36:52.759Z,7.70
2022-08-09T09:39:23.610Z,6.57
2022-08-09T09:42:27.743Z,9.17
2022-08-09T09:45:00.369Z,5.30
2022-08-09T09:47:28.819Z,7.87
2022-08-09T09:50:14.987Z,5.53
2022-08-09T09:52:56.522Z,7.80
2022-08-09T09:55:31.310Z,5.70
2022-08-09T09:58:17.376Z,6.77
2022-08-09T10:00:59.167Z,6.20
2022-08-09T10:03:56.289Z,6.03
2022-08-09T10:06:25.175Z,17.60
2022-08-09T10:09:02.822Z,5.23
2022-08-09T10:12:01.412Z,8.60
2022-08-09T10:14:33.058Z,6.33
2022-08-09T10:17:40.177Z,6.60
2022-08-09T10:20:27.617Z,5.90
2022-08-09T10:23:20.064Z,5.77
2022-08-09T10:26:07.415Z,5.40
2022-08-09T10:28:37.404Z,8.90
2022-08-09T10:34:32.299Z,7.20
2022-08-09T10:36:40.012Z,5.23
2022-08-09T10:39:15.780Z,7.30
2022-08-09T10:41:46.251Z,6.40
2022-08-09T10:44:19.371Z,8.60
2022-08-09T10:48:13.144Z,6.40
2022-08-09T10:50:31.143Z,6.87
2022-08-09T10:53:38.044Z,10.33
2022-08-09T10:56:40.533Z,5.40
2022-08-09T10:59:23.217Z,4.80
2022-08-09T11:03:18.328Z,4.37
2022-08-09T11:05:25.461Z,5.10
2022-08-09T11:07:59.478Z,5.47
2022-08-09T11:10:47.296Z,5.30
2022-08-09T11:13:22.074Z,5.00
2022-08-09T11:16:33.598Z,6.70
2022-08-09T11:19:07.966Z,4.50
2022-08-09T11:21:57.115Z,6.23
2022-08-09T11:24:58.024Z,5.03
2022-08-09T11:28:03.972Z,5.80
2022-08-09T11:30:33.606Z,5.80
2022-08-09T11:33:19.118Z,3.60
2022-08-09T11:35:57.481Z,10.13
2022-08-09T11:38:32.275Z,7.33
2022-08-09T11:41:13.170Z,5.73
2022-08-09T11:43:49.363Z,6.03
2022-08-09T11:46:32.894Z,4.93
2022-08-09T11:49:04.910Z,4.93
2022-08-09T11:53:04.097Z,4.10
2022-08-09T11:55:51.593Z,3.97
2022-08-09T11:58:30.460Z,5.80
2022-08-09T12:01:08.765Z,7.00
2022-08-09T12:03:56.768Z,5.63
2022-08-09T12:06:32.876Z,5.97
2022-08-09T12:09:15.283Z,5.37
2022-08-09T12:12:03.239Z,4.20
2022-08-09T12:14:40.676Z,5.67
2022-08-09T12:17:28.088Z,4.87
2022-08-09T12:20:16.685Z,4.33
2022-08-09T12:22:59.833Z,4.80
2022-08-09T12:25:31.847Z,3.40
2022-08-09T12:28:59.036Z,3.90
2022-08-09T12:31:10.720Z,3.80
2022-08-09T12:33:58.528Z,4.30
2022-08-09T12:36:32.257Z,8.23
2022-08-09T12:39:02.293Z,9.73
2022-08-09T12:41:39.093Z,5.13
2022-08-09T12:44:10.031Z,4.00
2022-08-09T12:46:49.011Z,8.17
2022-08-09T12:49:18.341Z,8.20
2022-08-09T12:52:02.655Z,6.27
2022-08-09T12:56:02.339Z,6.27
2022-08-09T12:57:46.176Z,12.70
2022-08-09T13:00:18.601Z,6.97
2022-08-09T13:02:57.807Z,4.80
2022-08-09T13:05:52.476Z,8.83
2022-08-09T13:08:39.766Z,5.13
2022-08-09T13:11:23.018Z,5.83
2022-08-09T13:14:42.486Z,5.90
2022-08-09T13:16:47.654Z,13.70
2022-08-09T13:20:09.772Z,6.80
2022-08-09T13:22:35.530Z,5.67
2022-08-09T13:25:07.627Z,6.53
2022-08-09T13:27:39.870Z,21.03
2022-08-09T13:30:51.591Z,10.53
2022-08-09T13:33:11.700Z,4.97
2022-08-09T13:36:24.723Z,6.87
2022-08-09T13:38:57.238Z,12.97
2022-08-09T13:41:57.881Z,7.63
2022-08-09T13:44:13.800Z,7.07
2022-08-09T13:47:25.234Z,6.43
2022-08-09T13:49:37.784Z,5.73
2022-08-09T13:52:09.160Z,4.93
2022-08-09T13:54:43.065Z,12.83
2022-08-09T13:57:36.934Z,6.17
2022-08-09T14:00:18.621Z,3.73
2022-08-09T14:03:03.939Z,7.13
2022-08-09T14:05:56.461Z,6.80
2022-08-09T14:08:26.851Z,8.07
2022-08-09T14:10:55.570Z,9.03
2022-08-09T14:14:16.418Z,7.83
2022-08-09T14:16:18.663Z,7.67
2022-08-09T14:18:51.698Z,8.47
2022-08-09T14:21:24.388Z,7.63
2022-08-09T14:23:56.709Z,6.60
2022-08-09T14:26:32.089Z,6.47
2022-08-09T14:29:08.103Z,4.43
2022-08-09T14:31:53.444Z,7.50
2022-08-09T14:34:30.726Z,4.20
2022-08-09T14:37:07.494Z,5.47
2022-08-09T14:39:46.915Z,6.93
2022-08-09T14:42:30.275Z,7.30
2022-08-09T14:46:39.805Z,7.67
2022-08-09T14:47:57.995Z,5.80
2022-08-09T14:50:27.356Z,9.90
2022-08-09T14:52:54.518Z,10.50
2022-08-09T14:55:21.680Z,4.30
2022-08-09T14:57:49.322Z,5.80
2022-08-09T15:00:18.058Z,3.80
2022-08-09T15:02:47.795Z,8.60
2022-08-09T15:05:19.718Z,15.63
2022-08-09T15:07:54.843Z,5.10
2022-08-09T15:10:25.578Z,4.63
2022-08-09T15:12:56.851Z,4.97
2022-08-09T15:15:24.774Z,6.73
2022-08-09T15:17:56.289Z,8.50
2022-08-09T15:22:01.049Z,3.90
2022-08-09T15:24:05.656Z,8.23
2022-08-09T15:25:59.210Z,9.10
2022-08-09T15:28:28.526Z,14.03
2022-08-09T15:31:10.132Z,12.20
2022-08-09T15:34:15.543Z,9.87
2022-08-09T15:36:29.098Z,3.83
2022-08-09T15:38:58.899Z,11.03
2022-08-09T15:41:31.574Z,8.53
2022-08-09T15:44:01.762Z,4.47
2022-08-09T15:46:33.525Z,8.40
2022-08-09T15:49:21.860Z,8.00
2022-08-09T15:52:03.214Z,8.17
2022-08-09T15:54:44.745Z,6.57
2022-08-09T15:57:34.274Z,7.83
2022-08-09T16:00:24.381Z,5.33
2022-08-09T16:02:56.538Z,5.77
2022-08-09T16:05:47.606Z,12.03
2022-08-09T16:08:30.028Z,11.53
2022-08-09T16:10:59.747Z,8.20
2022-08-09T16:14:02.753Z,10.40
2022-08-09T16:16:18.323Z,8.53
2022-08-09T16:18:49.848Z,6.60
2022-08-09T16:21:25.582Z,6.97
2022-08-09T16:23:58.766Z,12.63
2022-08-09T16:26:34.484Z,8.33
2022-08-09T16:29:20.679Z,13.17
2022-08-09T16:32:17.828Z,7.20
2022-08-09T16:34:55.064Z,9.10
2022-08-09T16:37:54.572Z,15.23
2022-08-09T16:40:13.030Z,5.50
2022-08-09T16:42:45.369Z,7.00
2022-08-09T16:45:18.625Z,6.00
2022-08-09T16:48:40.590Z,7.00
2022-08-09T16:50:38.527Z,7.17
2022-08-09T16:53:05.928Z,7.33
2022-08-09T16:55:59.842Z,5.97
2022-08-09T16:58:21.139Z,5.53
2022-08-09T17:00:49.532Z,10.07
2022-08-09T17:03:22.192Z,10.30
2022-08-09T17:06:07.036Z,7.70
2022-08-09T17:09:02.754Z,5.10
2022-08-09T17:11:40.812Z,7.53
2022-08-09T17:14:25.821Z,10.57
2022-08-09T17:16:59.954Z,4.47
2022-08-09T17:19:46.886Z,4.03
2022-08-09T17:22:23.675Z,6.00
2022-08-09T17:24:55.369Z,8.33
2022-08-09T17:27:22.932Z,4.40
2022-08-09T17:29:51.441Z,5.43
2022-08-09T17:32:20.303Z,5.67
2022-08-09T17:35:01.415Z,7.70
2022-08-09T17:38:11.467Z,6.97
2022-08-09T17:40:25.928Z,8.37
2022-08-09T17:42:59.548Z,9.10
2022-08-09T17:46:01.885Z,9.00
2022-08-09T17:48:17.524Z,5.57
2022-08-09T17:50:56.433Z,6.10
2022-08-09T17:53:31.924Z,8.90
2022-08-09T17:56:03.282Z,6.70
2022-08-09T17:58:34.579Z,6.97
2022-08-09T18:01:01.660Z,6.50
2022-08-09T18:03:30.491Z,7.00
2022-08-09T18:06:01.025Z,6.43
2022-08-09T18:08:28.879Z,8.07
2022-08-09T18:11:01.600Z,6.80
2022-08-09T18:13:43.094Z,6.20
2022-08-09T18:16:28.918Z,8.53
2022-08-09T18:18:57.144Z,6.10
2022-08-09T18:21:26.188Z,7.80
2022-08-09T18:24:10.591Z,6.50
2022-08-09T18:26:46.375Z,5.30
2022-08-09T18:30:42.195Z,11.20
2022-08-09T18:32:03.083Z,8.20
2022-08-09T18:34:31.648Z,7.10
2022-08-09T18:36:58.875Z,7.07
2022-08-09T18:39:32.598Z,6.93
2022-08-09T18:42:05.368Z,8.33
2022-08-09T18:44:35.898Z,10.13
2022-08-09T18:47:05.156Z,7.73
2022-08-09T18:49:43.227Z,13.33
2022-08-09T18:52:16.077Z,8.17
2022-08-09T18:54:52.635Z,7.07
2022-08-09T18:57:21.871Z,7.93
2022-08-09T18:59:55.382Z,14.13
2022-08-09T19:02:31.993Z,6.63
2022-08-09T19:05:03.667Z,7.53
2022-08-09T19:07:43.292Z,8.07
2022-08-09T19:10:29.579Z,8.03
2022-08-09T19:13:21.953Z,8.43
2022-08-09T19:15:52.441Z,7.63
2022-08-09T19:18:35.767Z,8.47
2022-08-09T19:21:09.171Z,10.17
2022-08-09T19:24:31.882Z,9.90
2022-08-09T19:26:31.548Z,9.57
2022-08-09T19:29:15.117Z,9.67
2022-08-09T19:31:46.525Z,14.07
2022-08-09T19:34:22.780Z,21.90
2022-08-09T19:36:52.415Z,11.90
2022-08-09T19:39:29.057Z,7.07
2022-08-09T19:42:07.355Z,10.80
2022-08-09T19:44:34.299Z,9.80
2022-08-09T19:47:01.859Z,12.50
2022-08-09T19:50:07.640Z,8.40
2022-08-09T19:52:16.363Z,17.77
2022-08-09T19:54:45.263Z,21.07
2022-08-09T19:57:12.523Z,6.23
2022-08-09T20:00:05.670Z,15.10
2022-08-09T20:04:07.524Z,14.67
2022-08-09T20:05:16.622Z,9.40
2022-08-09T20:07:59.671Z,10.77
2022-08-09T20:10:36.225Z,9.77
2022-08-09T20:13:06.561Z,12.63
2022-08-09T20:16:36.942Z,14.23
2022-08-09T20:18:22.783Z,8.67
2022-08-09T20:20:55.579Z,9.43
2022-08-09T20:23:23.669Z,11.10
2022-08-09T20:25:53.455Z,10.77
2022-08-09T20:28:27.997Z,18.43
2022-08-09T20:31:04.962Z,14.43
2022-08-09T20:33:38.895Z,5.97
2022-08-09T20:36:09.359Z,13.60
2022-08-09T20:39:28.913Z,10.13
2022-08-09T20:41:35.198Z,9.03
2022-08-09T20:44:06.857Z,13.50
2022-08-09T20:46:43.324Z,13.23
2022-08-09T20:49:16.005Z,12.83
2022-08-09T20:51:45.410Z,10.13
2022-08-09T20:54:18.021Z,17.80
2022-08-09T20:56:47.136Z,11.53
2022-08-09T20:59:16.709Z,7.87
2022-08-09T21:01:50.482Z,12.23
2022-08-09T21:05:52.141Z,14.50
2022-08-09T21:07:12.767Z,12.00
2022-08-09T21:09:56.351Z,10.00
2022-08-09T21:15:23.631Z,7.70
2022-08-09T21:18:21.119Z,8.13
2022-08-09T21:20:51.772Z,9.80
2022-08-09T21:23:21.219Z,11.00
2022-08-09T21:25:59.373Z,8.23
2022-08-09T21:28:34.303Z,8.70
2022-08-09T21:31:13.509Z,8.33
2022-08-09T21:33:51.505Z,12.47
2022-08-09T21:36:27.922Z,14.50
2022-08-09T21:38:58.634Z,6.83
2022-08-09T21:42:00.193Z,9.90
2022-08-09T21:44:32.724Z,9.47
2022-08-09T21:47:04.721Z,11.97
2022-08-09T21:49:39.589Z,8.30
2022-08-09T21:52:16.669Z,8.37
2022-08-09T21:54:59.383Z,11.57
2022-08-09T21:57:38.324Z,9.07
2022-08-09T22:00:33.349Z,9.17
2022-08-09T22:03:07.480Z,9.40
2022-08-09T22:05:42.386Z,8.13
2022-08-09T22:08:14.583Z,11.67
2022-08-09T22:11:48.991Z,11.53
2022-08-09T22:13:37.221Z,7.67
2022-08-09T22:16:09.057Z,8.93
2022-08-09T22:18:53.041Z,12.87
2022-08-09T22:21:27.454Z,11.73
2022-08-09T22:24:16.647Z,7.50
2022-08-09T22:26:47.818Z,9.10
2022-08-09T22:29:19.449Z,16.83
2022-08-09T22:31:57.049Z,13.90
2022-08-09T22:34:26.441Z,10.67
2022-08-09T22:36:58.463Z,19.07
2022-08-09T22:39:57.097Z,8.80
2022-08-09T22:42:20.752Z,17.43
2022-08-09T22:44:48.887Z,7.20
2022-08-09T22:48:14.691Z,14.87
2022-08-09T22:50:13.784Z,13.73
2022-08-09T22:52:40.706Z,12.00
2022-08-09T22:55:08.594Z,11.17
2022-08-09T22:57:59.973Z,8.17
2022-08-09T23:00:29.292Z,10.43
2022-08-09T23:02:56.785Z,8.43
2022-08-09T23:05:25.585Z,13.37
2022-08-09T23:08:23.047Z,10.87
2022-08-09T23:10:56.354Z,12.37
2022-08-09T23:13:23.411Z,9.17
2022-08-09T23:16:03.378Z,8.97
2022-08-09T23:18:31.124Z,12.70
2022-08-09T23:20:58.043Z,12.73
2022-08-09T23:23:25.044Z,18.93
2022-08-09T23:25:52.029Z,13.20
2022-08-09T23:28:18.919Z,8.63
2022-08-09T23:30:51.276Z,16.07
2022-08-09T23:33:20.833Z,12.60
2022-08-09T23:36:06.020Z,11.33
2022-08-09T23:38:35.952Z,14.40
2022-08-09T23:41:27.968Z,9.50
2022-08-09T23:43:58.551Z,11.43
2022-08-09T23:46:25.723Z,12.80
2022-08-09T23:48:52.655Z,8.47
2022-08-09T23:51:19.581Z,12.57
2022-08-09T23:53:47.442Z,8.67
2022-08-09T23:56:17.594Z,10.63
2022-08-09T23:59:04.919Z,10.07
